createdAt,value
2018-03-20T00:00:34.637Z,0
2018-03-20T00:01:15.138Z,0
2018-03-20T00:01:55.653Z,0
2018-03-20T00:02:36.163Z,0
2018-03-20T00:03:16.664Z,0
2018-03-20T00:03:57.175Z,0
2018-03-20T00:04:37.684Z,0
2018-03-20T00:05:18.194Z,0
2018-03-20T00:05:58.713Z,0
2018-03-20T00:06:39.229Z,0
2018-03-20T00:07:19.750Z,0
2018-03-20T00:08:00.247Z,0
2018-03-20T00:08:40.781Z,0
2018-03-20T00:09:21.288Z,0
2018-03-20T00:10:01.792Z,0
2018-03-20T00:10:42.305Z,0
2018-03-20T00:11:22.829Z,0
2018-03-20T00:12:03.341Z,0
2018-03-20T00:12:43.850Z,0
2018-03-20T00:13:24.362Z,0
2018-03-20T00:14:04.873Z,0
2018-03-20T00:14:45.372Z,0
2018-03-20T00:15:25.897Z,0
2018-03-20T00:16:06.415Z,0
2018-03-20T00:16:46.927Z,0
2018-03-20T00:17:27.443Z,0
2018-03-20T00:18:07.978Z,0
2018-03-20T00:18:48.485Z,0
2018-03-20T00:19:29.019Z,0
2018-03-20T00:20:09.547Z,0
2018-03-20T00:20:50.052Z,0
2018-03-20T00:21:30.569Z,0
2018-03-20T00:22:11.095Z,0
2018-03-20T00:22:51.615Z,0
2018-03-20T00:23:32.151Z,0
2018-03-20T00:24:12.670Z,0
2018-03-20T00:24:53.186Z,0
2018-03-20T00:25:33.703Z,0
2018-03-20T00:26:14.191Z,0
2018-03-20T00:26:54.701Z,0
2018-03-20T00:27:35.219Z,0
2018-03-20T00:28:15.720Z,0
2018-03-20T00:28:56.230Z,0
2018-03-20T00:29:36.746Z,0
2018-03-20T00:30:17.259Z,0
2018-03-20T00:30:57.780Z,0
2018-03-20T00:31:38.292Z,0
2018-03-20T00:32:18.804Z,0
2018-03-20T00:32:59.319Z,0
2018-03-20T00:33:39.846Z,0
2018-03-20T00:34:20.357Z,0
2018-03-20T00:35:00.874Z,0
2018-03-20T00:35:41.393Z,0
2018-03-20T00:36:21.910Z,0
2018-03-20T00:37:02.427Z,0
2018-03-20T00:37:42.933Z,0
2018-03-20T00:38:23.455Z,0
2018-03-20T00:39:03.960Z,0
2018-03-20T00:39:44.482Z,0
2018-03-20T00:40:25.002Z,0
2018-03-20T00:41:05.516Z,0
2018-03-20T00:41:46.026Z,0
2018-03-20T00:42:26.526Z,0
2018-03-20T00:43:07.079Z,0
2018-03-20T00:43:47.594Z,0
2018-03-20T00:44:28.109Z,0
2018-03-20T00:45:08.626Z,0
2018-03-20T00:45:49.136Z,0
2018-03-20T00:46:29.661Z,0
2018-03-20T00:47:10.180Z,0
2018-03-20T00:47:50.702Z,0
2018-03-20T00:48:31.217Z,0
2018-03-20T00:49:11.721Z,0
2018-03-20T00:49:52.257Z,0
2018-03-20T00:50:32.766Z,0
2018-03-20T00:51:13.284Z,0
2018-03-20T00:51:53.798Z,0
2018-03-20T00:52:34.341Z,0
2018-03-20T00:53:14.820Z,0
2018-03-20T00:53:55.326Z,0
2018-03-20T00:54:35.848Z,0
2018-03-20T00:55:16.366Z,0
2018-03-20T00:55:56.860Z,0
2018-03-20T00:56:37.374Z,0
2018-03-20T00:57:17.887Z,0
2018-03-20T00:57:58.399Z,0
2018-03-20T00:58:38.915Z,0
2018-03-20T00:59:19.416Z,0
2018-03-20T00:59:59.924Z,0
2018-03-20T01:00:40.442Z,0
2018-03-20T01:01:20.974Z,0
2018-03-20T01:02:01.475Z,0
2018-03-20T01:02:41.986Z,0
2018-03-20T01:03:22.496Z,0
2018-03-20T01:04:03.008Z,0
2018-03-20T01:04:43.527Z,0
2018-03-20T01:05:24.038Z,0
2018-03-20T01:06:04.560Z,0
2018-03-20T01:06:45.057Z,0
2018-03-20T01:07:25.566Z,0
2018-03-20T01:08:06.068Z,0
2018-03-20T01:08:46.570Z,0
2018-03-20T01:09:27.074Z,0
2018-03-20T01:10:07.569Z,0
2018-03-20T01:10:48.094Z,0
2018-03-20T01:11:28.592Z,0
2018-03-20T01:13:46.938Z,0
2018-03-20T01:14:27.454Z,0
2018-03-20T01:15:08.000Z,0
2018-03-20T01:15:48.523Z,0
2018-03-20T01:16:29.032Z,0
2018-03-20T01:17:09.569Z,0
2018-03-20T01:17:50.072Z,0
2018-03-20T01:18:30.573Z,0
2018-03-20T01:19:11.078Z,0
2018-03-20T01:19:51.581Z,0
2018-03-20T01:20:32.092Z,0
2018-03-20T01:21:12.596Z,0
2018-03-20T01:21:53.106Z,0
2018-03-20T01:22:33.639Z,0
2018-03-20T01:23:14.146Z,0
2018-03-20T01:23:54.657Z,0
2018-03-20T01:24:35.168Z,0
2018-03-20T01:25:15.693Z,0
2018-03-20T01:25:56.194Z,0
2018-03-20T01:26:36.708Z,0
2018-03-20T01:27:17.213Z,0
2018-03-20T01:27:57.739Z,0
2018-03-20T01:28:38.251Z,0
2018-03-20T01:29:18.749Z,0
2018-03-20T01:29:59.254Z,0
2018-03-20T01:30:39.765Z,0
2018-03-20T01:31:20.274Z,0
2018-03-20T01:32:00.780Z,0
2018-03-20T01:32:41.293Z,0
2018-03-20T01:33:21.802Z,0
2018-03-20T01:34:02.322Z,0
2018-03-20T01:34:42.826Z,0
2018-03-20T01:35:23.336Z,0
2018-03-20T01:36:03.852Z,0
2018-03-20T01:36:44.392Z,0
2018-03-20T01:37:24.905Z,0
2018-03-20T01:38:05.426Z,0
2018-03-20T01:38:45.937Z,0
2018-03-20T01:39:26.455Z,0
2018-03-20T01:40:06.967Z,0
2018-03-20T01:40:47.497Z,0
2018-03-20T01:41:27.985Z,0
2018-03-20T01:42:08.512Z,0
2018-03-20T01:42:49.032Z,0
2018-03-20T01:43:29.538Z,0
2018-03-20T01:44:10.051Z,0
2018-03-20T01:44:50.555Z,0
2018-03-20T01:45:31.059Z,0
2018-03-20T01:46:11.584Z,0
2018-03-20T01:46:52.084Z,0
2018-03-20T01:47:32.607Z,0
2018-03-20T01:48:13.129Z,0
2018-03-20T01:48:53.642Z,0
2018-03-20T01:49:34.150Z,0
2018-03-20T01:50:14.661Z,0
2018-03-20T01:50:55.172Z,0
2018-03-20T01:51:35.696Z,0
2018-03-20T01:52:16.200Z,0
2018-03-20T01:52:56.713Z,0
2018-03-20T01:53:37.229Z,0
2018-03-20T01:54:17.766Z,0
2018-03-20T01:54:58.255Z,0
2018-03-20T01:55:38.749Z,0
2018-03-20T01:56:19.265Z,0
2018-03-20T01:56:59.777Z,0
2018-03-20T01:57:40.314Z,0
2018-03-20T01:58:20.819Z,0
2018-03-20T01:59:01.330Z,0
2018-03-20T01:59:41.846Z,0
2018-03-20T02:00:22.365Z,0
2018-03-20T02:01:02.874Z,0
2018-03-20T02:01:43.358Z,0
2018-03-20T02:02:23.863Z,0
2018-03-20T02:03:04.376Z,0
2018-03-20T02:03:44.901Z,0
2018-03-20T02:04:25.430Z,0
2018-03-20T02:05:05.930Z,0
2018-03-20T02:05:46.432Z,0
2018-03-20T02:06:26.949Z,0
2018-03-20T02:07:07.462Z,0
2018-03-20T02:07:47.971Z,0
2018-03-20T02:08:28.498Z,0
2018-03-20T02:09:08.989Z,0
2018-03-20T02:09:49.495Z,0
2018-03-20T02:10:30.027Z,0
2018-03-20T02:11:10.538Z,0
2018-03-20T02:11:51.061Z,0
2018-03-20T02:12:31.575Z,0
2018-03-20T02:13:12.081Z,0
2018-03-20T02:13:52.604Z,0
2018-03-20T02:14:33.108Z,0
2018-03-20T02:15:13.633Z,0
2018-03-20T02:15:54.154Z,0
2018-03-20T02:16:34.667Z,0
2018-03-20T02:17:15.171Z,0
2018-03-20T02:17:55.692Z,0
2018-03-20T02:18:36.207Z,0
2018-03-20T02:19:16.732Z,0
2018-03-20T02:19:57.260Z,0
2018-03-20T02:20:37.762Z,0
2018-03-20T02:21:18.277Z,0
2018-03-20T02:21:58.785Z,0
2018-03-20T02:22:39.304Z,0
2018-03-20T02:23:19.818Z,0
2018-03-20T02:24:00.342Z,0
2018-03-20T02:24:40.860Z,0
2018-03-20T02:25:21.379Z,0
2018-03-20T02:26:01.893Z,0
2018-03-20T02:26:42.412Z,0
2018-03-20T02:27:22.907Z,0
2018-03-20T02:28:03.421Z,0
2018-03-20T02:28:43.928Z,0
2018-03-20T02:29:24.441Z,0
2018-03-20T02:30:04.943Z,0
2018-03-20T02:30:45.467Z,0
2018-03-20T02:31:25.971Z,0
2018-03-20T02:32:06.484Z,0
2018-03-20T02:32:46.999Z,0
2018-03-20T02:33:27.501Z,0
2018-03-20T02:34:08.001Z,0
2018-03-20T02:34:48.504Z,0
2018-03-20T02:35:29.018Z,0
2018-03-20T02:36:09.524Z,0
2018-03-20T02:36:50.043Z,0
2018-03-20T02:37:30.545Z,0
2018-03-20T02:38:11.057Z,0
2018-03-20T02:38:51.579Z,0
2018-03-20T02:39:32.088Z,0
2018-03-20T02:40:12.602Z,0
2018-03-20T02:40:53.123Z,0
2018-03-20T02:41:33.638Z,0
2018-03-20T02:42:14.153Z,0
2018-03-20T02:42:54.668Z,0
2018-03-20T02:43:35.173Z,0
2018-03-20T02:44:15.688Z,0
2018-03-20T02:44:56.201Z,0
2018-03-20T02:45:36.722Z,0
2018-03-20T02:46:17.234Z,0
2018-03-20T02:46:57.756Z,0
2018-03-20T02:47:38.265Z,0
2018-03-20T02:48:18.779Z,0
2018-03-20T02:48:59.305Z,0
2018-03-20T02:49:39.822Z,0
2018-03-20T02:50:20.325Z,0
2018-03-20T02:51:00.886Z,0
2018-03-20T02:51:41.343Z,0
2018-03-20T02:52:21.853Z,0
2018-03-20T02:53:02.368Z,0
2018-03-20T02:53:42.875Z,0
2018-03-20T02:54:23.386Z,0
2018-03-20T02:55:03.901Z,0
2018-03-20T02:55:44.410Z,0
2018-03-20T02:56:24.918Z,0
2018-03-20T02:57:05.440Z,0
2018-03-20T02:57:45.953Z,0
2018-03-20T02:58:26.476Z,0
2018-03-20T02:59:06.973Z,0
2018-03-20T02:59:47.496Z,0
2018-03-20T03:00:27.995Z,0
2018-03-20T03:01:08.508Z,0
2018-03-20T03:01:49.024Z,0
2018-03-20T03:02:29.524Z,0
2018-03-20T03:03:10.034Z,0
2018-03-20T03:03:50.537Z,0
2018-03-20T03:04:31.032Z,0
2018-03-20T03:05:11.540Z,0
2018-03-20T03:05:52.042Z,0
2018-03-20T03:06:32.539Z,0
2018-03-20T03:07:13.045Z,0
2018-03-20T03:07:53.563Z,0
2018-03-20T03:08:34.069Z,0
2018-03-20T03:09:14.587Z,0
2018-03-20T03:09:55.094Z,0
2018-03-20T03:10:35.609Z,0
2018-03-20T03:11:16.118Z,0
2018-03-20T03:11:56.625Z,0
2018-03-20T03:12:37.173Z,0
2018-03-20T03:13:17.683Z,0
2018-03-20T03:13:58.213Z,0
2018-03-20T03:14:38.717Z,0
2018-03-20T03:15:19.226Z,0
2018-03-20T03:15:59.742Z,0
2018-03-20T03:16:40.263Z,0
2018-03-20T03:17:20.774Z,0
2018-03-20T03:18:01.291Z,0
2018-03-20T03:18:41.796Z,0
2018-03-20T03:19:22.314Z,0
2018-03-20T03:20:02.839Z,0
2018-03-20T03:20:43.354Z,0
2018-03-20T03:21:23.861Z,0
2018-03-20T03:22:04.423Z,0
2018-03-20T03:22:44.875Z,0
2018-03-20T03:23:25.391Z,0
2018-03-20T03:24:05.914Z,0
2018-03-20T03:24:46.417Z,0
2018-03-20T03:25:26.924Z,0
2018-03-20T03:26:07.438Z,0
2018-03-20T03:26:47.938Z,0
2018-03-20T03:27:28.436Z,0
2018-03-20T03:28:08.945Z,0
2018-03-20T03:28:49.458Z,0
2018-03-20T03:29:29.966Z,0
2018-03-20T03:30:10.489Z,0
2018-03-20T03:30:50.997Z,0
2018-03-20T03:31:31.501Z,0
2018-03-20T03:32:11.997Z,0
2018-03-20T03:32:52.513Z,0
2018-03-20T03:33:33.025Z,0
2018-03-20T03:34:13.543Z,0
2018-03-20T03:34:54.071Z,0
2018-03-20T03:35:34.584Z,0
2018-03-20T03:36:15.103Z,0
2018-03-20T03:36:55.612Z,0
2018-03-20T03:37:36.128Z,0
2018-03-20T03:38:16.651Z,0
2018-03-20T03:38:57.168Z,0
2018-03-20T03:39:37.679Z,0
2018-03-20T03:40:18.195Z,0
2018-03-20T03:40:58.793Z,0
2018-03-20T03:41:39.309Z,0
2018-03-20T03:42:19.835Z,0
2018-03-20T03:43:00.348Z,0
2018-03-20T03:43:40.879Z,0
2018-03-20T03:44:21.387Z,0
2018-03-20T03:45:01.906Z,0
2018-03-20T03:45:42.413Z,0
2018-03-20T03:46:22.919Z,0
2018-03-20T03:47:03.444Z,0
2018-03-20T03:47:43.950Z,0
2018-03-20T03:48:24.452Z,0
2018-03-20T03:49:04.957Z,0
2018-03-20T03:49:45.469Z,0
2018-03-20T03:50:25.977Z,0
2018-03-20T03:51:06.486Z,0
2018-03-20T03:51:47.006Z,0
2018-03-20T03:52:27.521Z,0
2018-03-20T03:53:08.024Z,0
2018-03-20T03:53:48.546Z,0
2018-03-20T03:54:29.041Z,0
2018-03-20T03:55:09.568Z,0
2018-03-20T03:55:50.074Z,0
2018-03-20T03:56:30.577Z,0
2018-03-20T03:57:11.083Z,0
2018-03-20T03:57:51.576Z,0
2018-03-20T03:58:32.089Z,0
2018-03-20T03:59:12.612Z,0
2018-03-20T03:59:53.133Z,0
2018-03-20T04:00:33.643Z,0
2018-03-20T04:01:14.157Z,0
2018-03-20T04:01:54.678Z,0
2018-03-20T04:02:35.194Z,0
2018-03-20T04:03:15.713Z,0
2018-03-20T04:03:56.229Z,0
2018-03-20T04:04:36.734Z,0
2018-03-20T04:05:17.253Z,0
2018-03-20T04:05:57.768Z,0
2018-03-20T04:06:38.288Z,0
2018-03-20T04:07:18.796Z,0
2018-03-20T04:07:59.311Z,0
2018-03-20T04:08:39.846Z,0
2018-03-20T04:09:20.355Z,0
2018-03-20T04:10:00.869Z,0
2018-03-20T04:10:41.380Z,0
2018-03-20T04:11:21.909Z,0
2018-03-20T04:12:02.403Z,0
2018-03-20T04:12:42.914Z,0
2018-03-20T04:13:23.424Z,0
2018-03-20T04:14:03.949Z,0
2018-03-20T04:14:44.457Z,0
2018-03-20T04:15:24.955Z,0
2018-03-20T04:16:05.447Z,0
2018-03-20T04:16:45.963Z,0
2018-03-20T04:17:26.481Z,0
2018-03-20T04:18:07.003Z,0
2018-03-20T04:18:47.516Z,0
2018-03-20T04:19:28.033Z,0
2018-03-20T04:20:08.543Z,0
2018-03-20T04:20:49.065Z,0
2018-03-20T04:21:29.572Z,0
2018-03-20T04:22:10.072Z,0
2018-03-20T04:22:50.614Z,0
2018-03-20T04:23:31.116Z,0
2018-03-20T04:24:11.620Z,0
2018-03-20T04:24:52.133Z,0
2018-03-20T04:25:32.639Z,0
2018-03-20T04:26:13.150Z,0
2018-03-20T04:26:53.659Z,0
2018-03-20T04:27:34.168Z,0
2018-03-20T04:28:14.688Z,0
2018-03-20T04:28:55.194Z,0
2018-03-20T04:29:35.712Z,0
2018-03-20T04:30:16.226Z,0
2018-03-20T04:30:56.752Z,0
2018-03-20T04:31:37.263Z,0
2018-03-20T04:32:17.779Z,0
2018-03-20T04:32:58.280Z,0
2018-03-20T04:33:38.789Z,0
2018-03-20T04:34:19.305Z,0
2018-03-20T04:34:59.814Z,0
2018-03-20T04:35:40.328Z,0
2018-03-20T04:36:20.854Z,0
2018-03-20T04:37:01.336Z,0
2018-03-20T04:37:41.846Z,0
2018-03-20T04:38:22.434Z,0
2018-03-20T04:39:02.948Z,0
2018-03-20T04:39:43.476Z,0
2018-03-20T04:40:23.994Z,0
2018-03-20T04:41:04.503Z,0
2018-03-20T04:41:45.013Z,0
2018-03-20T04:42:25.520Z,0
2018-03-20T04:43:06.032Z,0
2018-03-20T04:43:46.549Z,0
2018-03-20T04:44:27.050Z,0
2018-03-20T04:45:07.572Z,0
2018-03-20T04:45:48.086Z,0
2018-03-20T04:46:28.595Z,0
2018-03-20T04:47:09.114Z,0
2018-03-20T04:47:49.622Z,0
2018-03-20T04:48:30.130Z,0
2018-03-20T04:49:10.634Z,0
2018-03-20T04:49:51.139Z,0
2018-03-20T04:50:31.656Z,0
2018-03-20T04:51:12.163Z,0
2018-03-20T04:51:52.670Z,0
2018-03-20T04:52:33.183Z,0
2018-03-20T04:53:13.689Z,0
2018-03-20T04:53:54.204Z,0
2018-03-20T04:54:34.719Z,0
2018-03-20T04:55:15.238Z,0
2018-03-20T04:55:55.744Z,0
2018-03-20T04:56:36.265Z,0
2018-03-20T04:57:16.771Z,0
2018-03-20T04:57:57.281Z,0
2018-03-20T04:58:37.790Z,0
2018-03-20T04:59:18.300Z,0
2018-03-20T04:59:58.808Z,0
2018-03-20T05:00:39.306Z,0
2018-03-20T05:01:19.828Z,0
2018-03-20T05:02:00.341Z,0
2018-03-20T05:02:40.860Z,0
2018-03-20T05:03:21.391Z,0
2018-03-20T05:04:01.907Z,0
2018-03-20T05:04:42.419Z,0
2018-03-20T05:05:22.939Z,0
2018-03-20T05:06:03.455Z,0
2018-03-20T05:06:43.954Z,0
2018-03-20T05:07:24.465Z,0
2018-03-20T05:08:04.998Z,0
2018-03-20T05:08:45.511Z,0
2018-03-20T05:09:26.027Z,0
2018-03-20T05:10:06.530Z,0
2018-03-20T05:10:47.198Z,0
2018-03-20T05:11:27.553Z,0
2018-03-20T05:12:08.076Z,0
2018-03-20T05:12:48.564Z,0
2018-03-20T05:13:29.077Z,0
2018-03-20T05:14:09.586Z,0
2018-03-20T05:14:50.093Z,0
2018-03-20T05:15:30.616Z,0
2018-03-20T05:16:11.131Z,0
2018-03-20T05:16:51.640Z,0
2018-03-20T05:17:32.183Z,0
2018-03-20T05:18:12.705Z,0
2018-03-20T05:18:53.231Z,0
2018-03-20T05:19:33.751Z,0
2018-03-20T05:20:14.268Z,0
2018-03-20T05:20:54.773Z,0
2018-03-20T05:21:35.278Z,0
2018-03-20T05:22:15.800Z,0
2018-03-20T05:22:56.312Z,0
2018-03-20T05:23:36.819Z,0
2018-03-20T05:24:17.341Z,0
2018-03-20T05:24:57.848Z,0
2018-03-20T05:25:38.351Z,0
2018-03-20T05:26:18.868Z,0
2018-03-20T05:26:59.388Z,5
2018-03-20T05:27:39.914Z,5
2018-03-20T05:28:20.418Z,5
2018-03-20T05:29:00.940Z,5
2018-03-20T05:29:41.450Z,5
2018-03-20T05:30:21.961Z,5
2018-03-20T05:31:02.467Z,5
2018-03-20T05:31:43.003Z,5
2018-03-20T05:32:23.536Z,5
2018-03-20T05:33:04.027Z,5
2018-03-20T05:33:44.562Z,5
2018-03-20T05:34:25.086Z,5
2018-03-20T05:35:05.584Z,10
2018-03-20T05:35:46.606Z,10
2018-03-20T05:36:27.336Z,10
2018-03-20T05:37:07.844Z,10
2018-03-20T05:37:48.398Z,10
2018-03-20T05:38:28.937Z,10
2018-03-20T05:39:09.982Z,10
2018-03-20T05:39:50.493Z,10
2018-03-20T05:40:31.012Z,10
2018-03-20T05:41:11.532Z,10
2018-03-20T05:41:52.070Z,15
2018-03-20T05:42:32.639Z,15
2018-03-20T05:43:13.149Z,15
2018-03-20T05:43:53.700Z,15
2018-03-20T05:44:34.219Z,15
2018-03-20T05:45:14.729Z,15
2018-03-20T05:45:55.244Z,15
2018-03-20T05:46:35.765Z,15
2018-03-20T05:47:16.282Z,20
2018-03-20T05:47:56.800Z,20
2018-03-20T05:48:37.312Z,20
2018-03-20T05:49:17.818Z,20
2018-03-20T05:49:58.330Z,25
2018-03-20T05:50:38.849Z,25
2018-03-20T05:51:19.363Z,25
2018-03-20T05:51:59.874Z,25
2018-03-20T05:52:40.379Z,25
2018-03-20T05:53:20.893Z,30
2018-03-20T05:54:01.393Z,30
2018-03-20T05:54:41.920Z,30
2018-03-20T05:55:22.410Z,30
2018-03-20T05:56:02.913Z,30
2018-03-20T05:56:43.401Z,30
2018-03-20T05:57:23.918Z,35
2018-03-20T05:58:04.406Z,35
2018-03-20T05:58:44.930Z,35
2018-03-20T05:59:25.412Z,35
2018-03-20T06:00:05.929Z,35
2018-03-20T06:00:46.487Z,40
2018-03-20T06:01:27.009Z,40
2018-03-20T06:02:07.530Z,40
2018-03-20T06:02:48.051Z,40
2018-03-20T06:03:28.558Z,40
2018-03-20T06:04:09.089Z,45
2018-03-20T06:04:49.591Z,45
2018-03-20T06:05:30.107Z,45
2018-03-20T06:06:10.637Z,45
2018-03-20T06:06:51.126Z,50
2018-03-20T06:07:31.645Z,50
2018-03-20T06:08:12.154Z,50
2018-03-20T06:08:52.730Z,50
2018-03-20T06:09:33.241Z,50
2018-03-20T06:10:13.765Z,55
2018-03-20T06:10:54.294Z,55
2018-03-20T06:11:34.817Z,55
2018-03-20T06:12:15.355Z,55
2018-03-20T06:12:55.852Z,55
2018-03-20T06:13:36.411Z,60
2018-03-20T06:14:16.879Z,60
2018-03-20T06:14:57.311Z,60
2018-03-20T06:15:37.858Z,60
2018-03-20T06:16:18.272Z,60
2018-03-20T06:16:58.783Z,65
2018-03-20T06:17:39.274Z,65
2018-03-20T06:18:19.760Z,65
2018-03-20T06:19:00.282Z,65
2018-03-20T06:19:40.762Z,70
2018-03-20T06:20:21.173Z,70
2018-03-20T06:21:01.732Z,70
2018-03-20T06:21:42.255Z,70
2018-03-20T06:22:22.744Z,70
2018-03-20T06:23:03.182Z,75
2018-03-20T06:23:43.670Z,75
2018-03-20T06:24:24.139Z,75
2018-03-20T06:25:04.613Z,75
2018-03-20T06:25:45.155Z,80
2018-03-20T06:26:25.580Z,75
2018-03-20T06:27:06.041Z,80
2018-03-20T06:27:46.846Z,80
2018-03-20T06:28:27.316Z,80
2018-03-20T06:29:09.528Z,80
2018-03-20T06:29:49.932Z,80
2018-03-20T06:30:30.435Z,80
2018-03-20T06:31:10.920Z,80
2018-03-20T06:31:51.374Z,80
2018-03-20T06:32:31.884Z,80
2018-03-20T06:33:12.374Z,80
2018-03-20T06:33:52.832Z,80
2018-03-20T06:34:33.374Z,80
2018-03-20T06:35:13.825Z,85
2018-03-20T06:35:54.292Z,85
2018-03-20T06:36:34.784Z,85
2018-03-20T06:37:15.267Z,85
2018-03-20T06:37:55.735Z,85
2018-03-20T06:38:36.242Z,85
2018-03-20T06:39:16.745Z,85
2018-03-20T06:39:57.241Z,85
2018-03-20T06:40:37.715Z,90
2018-03-20T06:41:18.253Z,90
2018-03-20T06:41:58.689Z,90
2018-03-20T06:42:39.175Z,90
2018-03-20T06:43:19.671Z,90
2018-03-20T06:44:00.159Z,90
2018-03-20T06:44:40.684Z,90
2018-03-20T06:45:21.162Z,90
2018-03-20T06:46:01.623Z,90
2018-03-20T06:46:42.148Z,90
2018-03-20T06:47:22.623Z,90
2018-03-20T06:48:03.124Z,95
2018-03-20T06:48:43.684Z,95
2018-03-20T06:49:24.120Z,95
2018-03-20T06:50:04.653Z,95
2018-03-20T06:50:45.110Z,95
2018-03-20T06:51:25.633Z,95
2018-03-20T06:52:06.106Z,95
2018-03-20T06:52:46.602Z,95
2018-03-20T06:53:27.106Z,95
2018-03-20T06:54:07.729Z,95
2018-03-20T06:54:48.208Z,100
2018-03-20T06:55:28.715Z,100
2018-03-20T06:56:09.160Z,100
2018-03-20T06:56:49.655Z,100
2018-03-20T06:57:30.181Z,100
2018-03-20T06:58:10.599Z,100
2018-03-20T06:58:51.106Z,100
2018-03-20T06:59:31.714Z,100
2018-03-20T07:00:12.178Z,100
2018-03-20T07:00:52.688Z,105
2018-03-20T07:01:33.208Z,105
2018-03-20T07:02:13.696Z,115
2018-03-20T07:02:54.108Z,130
2018-03-20T07:03:34.693Z,125
2018-03-20T07:04:15.152Z,130
2018-03-20T07:04:55.680Z,135
2018-03-20T07:05:36.190Z,135
2018-03-20T07:06:16.732Z,135
2018-03-20T07:06:57.197Z,135
2018-03-20T07:07:37.702Z,135
2018-03-20T07:08:18.253Z,145
2018-03-20T07:08:58.746Z,140
2018-03-20T07:09:39.250Z,140
2018-03-20T07:10:19.702Z,145
2018-03-20T07:11:00.282Z,135
2018-03-20T07:11:40.828Z,150
2018-03-20T07:12:21.335Z,140
2018-03-20T07:13:01.821Z,155
2018-03-20T07:13:42.329Z,155
2018-03-20T07:14:22.788Z,140
2018-03-20T07:15:03.254Z,140
2018-03-20T07:15:43.756Z,140
2018-03-20T07:16:24.231Z,140
2018-03-20T07:17:04.784Z,140
2018-03-20T07:17:45.231Z,140
2018-03-20T07:18:25.723Z,140
2018-03-20T07:19:06.132Z,140
2018-03-20T07:19:46.692Z,155
2018-03-20T07:20:27.375Z,155
2018-03-20T07:21:07.980Z,155
2018-03-20T07:21:48.461Z,155
2018-03-20T07:22:28.902Z,145
2018-03-20T07:23:09.442Z,150
2018-03-20T07:23:49.932Z,150
2018-03-20T07:24:30.389Z,145
2018-03-20T07:25:16.415Z,145
2018-03-20T07:25:57.009Z,140
2018-03-20T07:26:37.531Z,135
2018-03-20T07:27:18.042Z,135
2018-03-20T07:27:58.469Z,135
2018-03-20T07:28:39.000Z,135
2018-03-20T07:29:19.473Z,135
2018-03-20T07:29:59.909Z,135
2018-03-20T07:30:40.444Z,135
2018-03-20T07:31:20.964Z,135
2018-03-20T07:32:01.451Z,135
2018-03-20T07:32:41.927Z,135
2018-03-20T07:33:22.415Z,135
2018-03-20T07:34:02.924Z,135
2018-03-20T07:34:43.413Z,135
2018-03-20T07:35:23.960Z,140
2018-03-20T07:36:04.405Z,135
2018-03-20T07:36:44.882Z,135
2018-03-20T07:37:25.429Z,135
2018-03-20T07:38:05.848Z,135
2018-03-20T07:38:46.349Z,135
2018-03-20T07:39:26.841Z,130
2018-03-20T07:40:07.441Z,130
2018-03-20T07:40:47.789Z,125
2018-03-20T07:41:28.347Z,120
2018-03-20T07:42:08.892Z,120
2018-03-20T07:42:49.800Z,120
2018-03-20T07:43:29.899Z,120
2018-03-20T07:44:10.402Z,120
2018-03-20T07:44:50.856Z,120
2018-03-20T07:45:31.415Z,120
2018-03-20T07:46:11.918Z,115
2018-03-20T07:46:52.359Z,115
2018-03-20T07:47:32.786Z,120
2018-03-20T07:48:13.914Z,115
2018-03-20T07:48:54.487Z,120
2018-03-20T07:49:34.953Z,120
2018-03-20T07:50:15.566Z,120
2018-03-20T07:50:56.056Z,120
2018-03-20T07:51:36.620Z,120
2018-03-20T07:52:17.064Z,120
2018-03-20T07:52:57.562Z,115
2018-03-20T07:53:38.402Z,115
2018-03-20T07:54:19.207Z,115
2018-03-20T07:54:59.469Z,115
2018-03-20T07:55:40.498Z,115
2018-03-20T07:56:21.020Z,115
2018-03-20T07:57:01.889Z,115
2018-03-20T07:57:42.351Z,115
2018-03-20T07:58:23.062Z,115
2018-03-20T07:59:03.375Z,115
2018-03-20T07:59:44.012Z,115
2018-03-20T08:00:24.625Z,115
2018-03-20T08:01:05.112Z,115
2018-03-20T08:01:45.902Z,115
2018-03-20T08:02:26.507Z,115
2018-03-20T08:03:06.957Z,115
2018-03-20T08:03:47.508Z,115
2018-03-20T08:04:27.938Z,115
2018-03-20T08:05:08.471Z,115
2018-03-20T08:05:49.005Z,115
2018-03-20T08:06:29.523Z,115
2018-03-20T08:07:10.233Z,115
2018-03-20T08:07:50.684Z,115
2018-03-20T08:08:31.316Z,115
2018-03-20T08:09:11.982Z,115
2018-03-20T08:09:52.911Z,115
2018-03-20T08:10:33.285Z,115
2018-03-20T08:11:13.779Z,115
2018-03-20T08:11:54.684Z,115
2018-03-20T08:12:35.144Z,120
2018-03-20T08:13:15.677Z,115
2018-03-20T08:13:56.209Z,115
2018-03-20T08:14:36.724Z,115
2018-03-20T08:15:17.422Z,115
2018-03-20T08:15:57.948Z,115
2018-03-20T08:16:38.439Z,115
2018-03-20T08:17:19.461Z,115
2018-03-20T08:18:00.151Z,115
2018-03-20T08:18:40.627Z,120
2018-03-20T08:19:21.198Z,115
2018-03-20T08:20:01.670Z,115
2018-03-20T08:20:42.223Z,115
2018-03-20T08:21:22.671Z,115
2018-03-20T08:22:03.165Z,115
2018-03-20T08:22:43.643Z,115
2018-03-20T08:23:24.234Z,115
2018-03-20T08:24:04.956Z,115
2018-03-20T08:24:45.419Z,115
2018-03-20T08:25:25.939Z,115
2018-03-20T08:26:06.386Z,115
2018-03-20T08:26:46.892Z,115
2018-03-20T08:27:27.361Z,110
2018-03-20T08:28:07.836Z,110
2018-03-20T08:28:48.391Z,110
2018-03-20T08:29:28.844Z,115
2018-03-20T08:30:09.390Z,115
2018-03-20T08:30:49.908Z,115
2018-03-20T08:31:30.521Z,115
2018-03-20T08:32:10.857Z,115
2018-03-20T08:32:51.375Z,115
2018-03-20T08:33:31.922Z,115
2018-03-20T08:34:12.352Z,115
2018-03-20T08:34:52.867Z,110
2018-03-20T08:35:33.359Z,110
2018-03-20T08:36:13.893Z,110
2018-03-20T08:36:54.463Z,110
2018-03-20T08:37:34.886Z,110
2018-03-20T08:38:15.429Z,110
2018-03-20T08:38:55.957Z,110
2018-03-20T08:39:36.471Z,110
2018-03-20T08:40:16.921Z,110
2018-03-20T08:40:57.385Z,110
2018-03-20T08:41:37.927Z,110
2018-03-20T08:42:18.424Z,110
2018-03-20T08:42:58.952Z,110
2018-03-20T08:43:39.436Z,110
2018-03-20T08:44:19.989Z,110
2018-03-20T08:45:00.511Z,110
2018-03-20T08:45:41.048Z,110
2018-03-20T08:46:21.551Z,110
2018-03-20T08:47:02.070Z,110
2018-03-20T08:47:42.548Z,110
2018-03-20T08:48:23.141Z,110
2018-03-20T08:49:03.668Z,110
2018-03-20T08:49:44.234Z,110
2018-03-20T08:50:24.724Z,110
2018-03-20T08:51:05.317Z,110
2018-03-20T08:51:46.109Z,110
2018-03-20T08:52:26.570Z,110
2018-03-20T08:53:06.985Z,110
2018-03-20T08:53:47.630Z,110
2018-03-20T08:54:28.080Z,110
2018-03-20T08:55:08.635Z,110
2018-03-20T08:55:49.116Z,110
2018-03-20T08:56:29.555Z,110
2018-03-20T08:57:10.066Z,110
2018-03-20T08:57:50.526Z,105
2018-03-20T08:58:31.081Z,110
2018-03-20T08:59:11.519Z,110
2018-03-20T08:59:52.009Z,110
2018-03-20T09:00:32.532Z,105
2018-03-20T09:01:12.985Z,105
2018-03-20T09:01:53.525Z,115
2018-03-20T09:02:34.294Z,110
2018-03-20T09:03:14.740Z,110
2018-03-20T09:03:55.260Z,115
2018-03-20T09:04:35.795Z,120
2018-03-20T09:05:16.258Z,125
2018-03-20T09:05:56.751Z,125
2018-03-20T09:06:37.264Z,120
2018-03-20T09:07:17.812Z,115
2018-03-20T09:07:58.195Z,115
2018-03-20T09:08:38.756Z,110
2018-03-20T09:09:19.180Z,105
2018-03-20T09:10:00.122Z,105
2018-03-20T09:10:40.635Z,110
2018-03-20T09:11:21.144Z,105
2018-03-20T09:12:01.540Z,110
2018-03-20T09:12:42.018Z,110
2018-03-20T09:13:22.542Z,105
2018-03-20T09:14:03.077Z,105
2018-03-20T09:14:43.555Z,105
2018-03-20T09:15:24.064Z,110
2018-03-20T09:16:04.545Z,105
2018-03-20T09:16:45.034Z,105
2018-03-20T09:17:25.484Z,105
2018-03-20T09:18:05.964Z,105
2018-03-20T09:18:46.472Z,105
2018-03-20T09:19:26.984Z,105
2018-03-20T09:20:07.505Z,105
2018-03-20T09:20:48.004Z,105
2018-03-20T09:21:28.577Z,105
2018-03-20T09:22:09.088Z,110
2018-03-20T09:22:49.563Z,110
2018-03-20T09:23:30.090Z,110
2018-03-20T09:24:10.673Z,110
2018-03-20T09:24:51.060Z,115
2018-03-20T09:25:31.603Z,115
2018-03-20T09:26:12.074Z,115
2018-03-20T09:26:52.621Z,120
2018-03-20T09:27:33.088Z,120
2018-03-20T09:28:13.615Z,125
2018-03-20T09:28:54.108Z,130
2018-03-20T09:29:34.650Z,130
2018-03-20T09:30:15.019Z,135
2018-03-20T09:30:55.522Z,135
2018-03-20T09:31:36.025Z,140
2018-03-20T09:32:16.528Z,140
2018-03-20T09:32:57.024Z,140
2018-03-20T09:33:37.667Z,145
2018-03-20T09:34:18.141Z,145
2018-03-20T09:34:58.691Z,145
2018-03-20T09:35:39.187Z,150
2018-03-20T09:36:19.680Z,160
2018-03-20T09:37:00.177Z,165
2018-03-20T09:37:40.633Z,170
2018-03-20T09:38:21.130Z,170
2018-03-20T09:39:01.631Z,180
2018-03-20T09:39:42.145Z,185
2018-03-20T09:40:22.697Z,175
2018-03-20T09:41:03.152Z,180
2018-03-20T09:41:43.834Z,180
2018-03-20T09:42:25.054Z,185
2018-03-20T09:43:05.556Z,185
2018-03-20T09:43:46.075Z,195
2018-03-20T09:44:26.521Z,200
2018-03-20T09:45:07.005Z,195
2018-03-20T09:45:47.463Z,205